createdAt,value
2022-08-14T00:00:44.353Z,0
2022-08-14T00:02:03.316Z,0
2022-08-14T00:03:07.804Z,0
2022-08-14T00:04:46.403Z,0
2022-08-14T00:06:29.421Z,0
2022-08-14T00:07:34.282Z,0
2022-08-14T00:08:46.809Z,0
2022-08-14T00:10:54.860Z,0
2022-08-14T00:13:08.310Z,0
2022-08-14T00:15:23.592Z,0
2022-08-14T00:16:46.388Z,0
2022-08-14T00:17:57.587Z,0
2022-08-14T00:19:22.600Z,0
2022-08-14T00:20:47.081Z,0
2022-08-14T00:23:18.857Z,0
2022-08-14T00:24:35.259Z,0
2022-08-14T00:26:23.091Z,0
2022-08-14T00:27:25.854Z,0
2022-08-14T00:28:38.158Z,0
2022-08-14T00:29:44.478Z,0
2022-08-14T00:30:46.278Z,0
2022-08-14T00:31:58.494Z,0
2022-08-14T00:33:17.197Z,0
2022-08-14T00:34:49.321Z,0
2022-08-14T00:36:51.173Z,0
2022-08-14T00:38:58.187Z,0
2022-08-14T00:40:35.509Z,0
2022-08-14T00:41:43.360Z,0
2022-08-14T00:43:15.971Z,0
2022-08-14T00:44:34.809Z,0
2022-08-14T00:45:52.787Z,0
2022-08-14T00:47:02.777Z,0
2022-08-14T00:48:05.697Z,0
2022-08-14T00:49:15.904Z,0
2022-08-14T00:50:28.300Z,0
2022-08-14T00:51:43.163Z,0
2022-08-14T00:52:52.227Z,0
2022-08-14T00:53:54.468Z,0
2022-08-14T00:56:16.085Z,0
2022-08-14T00:58:34.767Z,0
2022-08-14T00:59:38.775Z,0
2022-08-14T01:01:02.585Z,0
2022-08-14T01:02:10.645Z,0
2022-08-14T01:03:13.577Z,0
2022-08-14T01:04:57.186Z,0
2022-08-14T01:06:08.118Z,0
2022-08-14T01:07:14.343Z,0
2022-08-14T01:09:01.133Z,0
2022-08-14T01:11:09.876Z,0
2022-08-14T01:12:29.696Z,0
2022-08-14T01:13:44.490Z,0
2022-08-14T01:15:15.926Z,0
2022-08-14T01:16:33.021Z,0
2022-08-14T01:18:38.838Z,0
2022-08-14T01:19:49.864Z,0
2022-08-14T01:21:01.290Z,0
2022-08-14T01:22:05.663Z,0
2022-08-14T01:24:34.497Z,0
2022-08-14T01:25:40.903Z,0
2022-08-14T01:26:52.128Z,0
2022-08-14T01:28:01.031Z,0
2022-08-14T01:29:05.562Z,0
2022-08-14T01:30:08.499Z,0
2022-08-14T01:32:25.873Z,0
2022-08-14T01:36:23.963Z,0
2022-08-14T01:37:27.401Z,0
2022-08-14T01:39:39.092Z,0
2022-08-14T01:40:43.055Z,0
2022-08-14T01:41:48.152Z,0
2022-08-14T01:42:56.837Z,0
2022-08-14T01:44:00.488Z,0
2022-08-14T01:45:03.670Z,0
2022-08-14T01:46:25.570Z,0
2022-08-14T01:47:39.392Z,0
2022-08-14T01:50:03.543Z,0
2022-08-14T01:51:21.946Z,0
2022-08-14T01:53:05.172Z,0
2022-08-14T01:54:19.039Z,0
2022-08-14T01:55:28.841Z,0
2022-08-14T01:56:41.575Z,0
2022-08-14T01:58:30.767Z,0
2022-08-14T01:59:44.842Z,0
2022-08-14T02:02:10.487Z,0
2022-08-14T02:04:59.279Z,0
2022-08-14T02:06:36.806Z,0
2022-08-14T02:08:11.591Z,0
2022-08-14T02:09:41.712Z,0
2022-08-14T02:10:52.422Z,0
2022-08-14T02:11:58.023Z,0
2022-08-14T02:13:07.999Z,0
2022-08-14T02:14:32.815Z,0
2022-08-14T02:16:55.576Z,0
2022-08-14T02:18:00.650Z,0
2022-08-14T02:20:06.569Z,0
2022-08-14T02:22:34.222Z,0
2022-08-14T02:23:57.699Z,0
2022-08-14T02:24:59.491Z,0
2022-08-14T02:28:57.789Z,0
2022-08-14T02:30:08.240Z,0
2022-08-14T02:31:16.576Z,0
2022-08-14T02:32:46.122Z,0
2022-08-14T02:35:00.805Z,0
2022-08-14T02:37:11.747Z,0
2022-08-14T02:38:36.410Z,0
2022-08-14T02:39:39.553Z,0
2022-08-14T02:40:49.971Z,0
2022-08-14T02:42:04.989Z,0
2022-08-14T02:43:12.190Z,0
2022-08-14T02:44:31.112Z,0
2022-08-14T02:45:51.748Z,0
2022-08-14T02:47:02.733Z,0
2022-08-14T02:49:07.934Z,0
2022-08-14T02:50:13.116Z,0
2022-08-14T02:51:20.281Z,0
2022-08-14T02:53:05.041Z,0
2022-08-14T02:54:20.492Z,0
2022-08-14T02:55:23.187Z,0
2022-08-14T02:57:43.495Z,0
2022-08-14T02:59:00.579Z,0
2022-08-14T03:00:18.786Z,0
2022-08-14T03:01:56.116Z,0
2022-08-14T03:03:08.269Z,0
2022-08-14T03:04:13.104Z,0
2022-08-14T03:07:08.846Z,0
2022-08-14T03:08:21.046Z,0
2022-08-14T03:09:24.288Z,0
2022-08-14T03:10:35.525Z,0
2022-08-14T03:11:38.047Z,0
2022-08-14T03:13:43.874Z,0
2022-08-14T03:14:47.545Z,0
2022-08-14T03:15:59.337Z,0
2022-08-14T03:17:14.023Z,0
2022-08-14T03:18:33.433Z,0
2022-08-14T03:19:37.847Z,0
2022-08-14T03:21:43.161Z,0
2022-08-14T03:22:52.504Z,0
2022-08-14T03:23:54.875Z,0
2022-08-14T03:26:01.291Z,0
2022-08-14T03:27:10.469Z,0
2022-08-14T03:28:39.793Z,0
2022-08-14T03:29:48.763Z,0
2022-08-14T03:31:00.824Z,0
2022-08-14T03:32:08.734Z,0
2022-08-14T03:33:13.676Z,0
2022-08-14T03:34:58.916Z,0
2022-08-14T03:39:29.145Z,0
2022-08-14T03:41:42.032Z,1
2022-08-14T03:42:47.652Z,1
2022-08-14T03:45:48.108Z,1
2022-08-14T03:46:58.053Z,2
2022-08-14T03:48:03.849Z,2
2022-08-14T03:49:51.397Z,2
2022-08-14T03:50:59.309Z,2
2022-08-14T03:52:18.270Z,3
2022-08-14T03:53:58.704Z,3
2022-08-14T03:55:00.853Z,3
2022-08-14T03:56:05.813Z,4
2022-08-14T03:57:11.172Z,4
2022-08-14T03:58:37.889Z,4
2022-08-14T04:00:47.361Z,5
2022-08-14T04:02:54.045Z,6
2022-08-14T04:03:59.956Z,6
2022-08-14T04:05:17.744Z,7
2022-08-14T04:06:48.741Z,7
2022-08-14T04:08:33.536Z,8
2022-08-14T04:10:41.338Z,9
2022-08-14T04:12:55.571Z,10
2022-08-14T04:14:08.925Z,11
2022-08-14T04:15:11.286Z,11
2022-08-14T04:16:15.057Z,12
2022-08-14T04:17:23.075Z,12
2022-08-14T04:18:26.524Z,13
2022-08-14T04:19:37.928Z,13
2022-08-14T04:20:58.777Z,14
2022-08-14T04:22:06.100Z,15
2022-08-14T04:23:34.548Z,15
2022-08-14T04:24:42.898Z,16
2022-08-14T04:25:48.647Z,17
2022-08-14T04:26:50.725Z,18
2022-08-14T04:28:05.422Z,18
2022-08-14T04:29:17.443Z,19
2022-08-14T04:30:34.629Z,20
2022-08-14T04:33:23.590Z,21
2022-08-14T04:34:31.064Z,22
2022-08-14T04:35:58.850Z,23
2022-08-14T04:37:07.853Z,24
2022-08-14T04:38:41.490Z,24
2022-08-14T04:40:03.733Z,25
2022-08-14T04:41:12.031Z,25
2022-08-14T04:42:18.886Z,26
2022-08-14T04:44:38.715Z,27
2022-08-14T04:46:59.029Z,28
2022-08-14T04:49:15.598Z,29
2022-08-14T04:51:25.827Z,30
2022-08-14T04:53:45.110Z,32
2022-08-14T04:54:50.981Z,33
2022-08-14T04:55:55.351Z,34
2022-08-14T04:56:58.466Z,35
2022-08-14T04:58:06.908Z,36
2022-08-14T04:59:36.718Z,38
2022-08-14T05:00:48.430Z,39
2022-08-14T05:01:59.711Z,41
2022-08-14T05:03:07.643Z,42
2022-08-14T05:04:21.648Z,43
2022-08-14T05:06:40.953Z,44
2022-08-14T05:08:50.428Z,45
2022-08-14T05:10:33.131Z,46
2022-08-14T05:11:38.267Z,48
2022-08-14T05:14:55.735Z,48
2022-08-14T05:15:58.787Z,50
2022-08-14T05:17:03.907Z,51
2022-08-14T05:19:33.310Z,53
2022-08-14T05:23:02.092Z,58
2022-08-14T05:24:17.904Z,60
2022-08-14T05:25:23.531Z,61
2022-08-14T05:27:33.352Z,61
2022-08-14T05:28:35.362Z,62
2022-08-14T05:29:39.842Z,63
2022-08-14T05:30:46.706Z,64
2022-08-14T05:31:59.184Z,65
2022-08-14T05:33:02.450Z,68
2022-08-14T05:34:04.354Z,69
2022-08-14T05:35:08.237Z,71
2022-08-14T05:36:24.452Z,73
2022-08-14T05:37:31.395Z,75
2022-08-14T05:38:37.244Z,76
2022-08-14T05:39:42.660Z,79
2022-08-14T05:40:44.987Z,83
2022-08-14T05:41:56.101Z,84
2022-08-14T05:42:59.730Z,86
2022-08-14T05:44:02.076Z,87
2022-08-14T05:45:14.681Z,88
2022-08-14T05:46:17.829Z,88
2022-08-14T05:48:47.047Z,90
2022-08-14T05:50:55.746Z,90
2022-08-14T05:52:10.298Z,90
2022-08-14T05:53:23.850Z,92
2022-08-14T05:54:37.378Z,92
2022-08-14T05:55:46.605Z,93
2022-08-14T05:56:56.236Z,94
2022-08-14T05:59:03.680Z,96
2022-08-14T06:00:12.873Z,95
2022-08-14T06:01:35.554Z,96
2022-08-14T06:03:48.642Z,94
2022-08-14T06:05:00.890Z,94
2022-08-14T06:06:04.156Z,92
2022-08-14T06:08:43.016Z,88
2022-08-14T06:09:54.065Z,86
2022-08-14T06:10:56.981Z,84
2022-08-14T06:12:01.444Z,84
2022-08-14T06:13:04.847Z,84
2022-08-14T06:14:27.498Z,86
2022-08-14T06:15:32.117Z,89
2022-08-14T06:16:37.293Z,91
2022-08-14T06:18:02.553Z,94
2022-08-14T06:19:19.121Z,96
2022-08-14T06:21:33.313Z,102
2022-08-14T06:23:42.667Z,110
2022-08-14T06:24:46.551Z,111
2022-08-14T06:25:58.107Z,114
2022-08-14T06:27:12.042Z,115
2022-08-14T06:28:30.404Z,122
2022-08-14T06:29:35.991Z,125
2022-08-14T06:30:49.417Z,125
2022-08-14T06:32:43.586Z,129
2022-08-14T06:35:15.559Z,132
2022-08-14T06:36:20.776Z,136
2022-08-14T06:37:25.156Z,137
2022-08-14T06:39:40.008Z,136
2022-08-14T06:42:01.091Z,134
2022-08-14T06:43:07.682Z,132
2022-08-14T06:44:12.657Z,128
2022-08-14T06:45:20.045Z,125
2022-08-14T06:46:39.324Z,123
2022-08-14T06:47:47.409Z,122
2022-08-14T06:48:51.148Z,120
2022-08-14T06:50:00.495Z,118
2022-08-14T06:51:03.939Z,114
2022-08-14T06:52:08.985Z,115
2022-08-14T06:53:11.920Z,118
2022-08-14T06:55:30.265Z,120
2022-08-14T06:57:40.240Z,124
2022-08-14T06:59:45.933Z,135
2022-08-14T07:00:54.376Z,139
2022-08-14T07:01:58.776Z,143
2022-08-14T07:03:02.120Z,147
2022-08-14T07:04:18.935Z,147
2022-08-14T07:05:27.237Z,147
2022-08-14T07:06:51.504Z,147
2022-08-14T07:08:01.953Z,150
2022-08-14T07:10:17.917Z,160
2022-08-14T07:13:07.958Z,164
2022-08-14T07:14:17.004Z,165
2022-08-14T07:15:20.004Z,167
2022-08-14T07:16:28.887Z,170
2022-08-14T07:17:43.851Z,172
2022-08-14T07:18:52.192Z,175
2022-08-14T07:19:57.484Z,178
2022-08-14T07:22:22.377Z,184
2022-08-14T07:24:36.089Z,188
2022-08-14T07:25:39.680Z,188
2022-08-14T07:26:47.011Z,187
2022-08-14T07:27:49.923Z,185
2022-08-14T07:29:59.267Z,178
2022-08-14T07:32:34.946Z,170
2022-08-14T07:33:51.913Z,163
2022-08-14T07:35:00.250Z,162
2022-08-14T07:36:30.407Z,162
2022-08-14T07:37:35.504Z,174
2022-08-14T07:38:40.357Z,181
2022-08-14T07:40:54.043Z,192
2022-08-14T07:41:58.728Z,199
2022-08-14T07:43:17.460Z,207
2022-08-14T07:44:51.529Z,210
2022-08-14T07:45:58.159Z,203
2022-08-14T07:48:19.610Z,195
2022-08-14T07:50:39.036Z,196
2022-08-14T07:51:41.047Z,195
2022-08-14T07:52:47.929Z,198
2022-08-14T07:53:59.336Z,201
2022-08-14T07:57:00.801Z,209
2022-08-14T07:58:53.164Z,226
2022-08-14T08:00:03.661Z,231
2022-08-14T08:01:10.099Z,236
2022-08-14T08:02:23.557Z,242
2022-08-14T08:03:34.205Z,249
2022-08-14T08:04:42.954Z,251
2022-08-14T08:05:46.156Z,255
2022-08-14T08:06:53.802Z,255
2022-08-14T08:09:05.750Z,239
2022-08-14T08:11:08.884Z,228
2022-08-14T08:12:18.951Z,222
2022-08-14T08:13:30.301Z,224
2022-08-14T08:15:08.814Z,228
2022-08-14T08:16:16.552Z,235
2022-08-14T08:17:20.098Z,271
2022-08-14T08:18:39.936Z,427
2022-08-14T08:19:44.943Z,651
2022-08-14T08:21:01.091Z,748
2022-08-14T08:22:06.257Z,766
2022-08-14T08:23:36.471Z,793
2022-08-14T08:24:59.116Z,833
2022-08-14T08:26:02.741Z,848
2022-08-14T08:27:06.831Z,867
2022-08-14T08:28:29.732Z,799
2022-08-14T08:29:32.895Z,785
2022-08-14T08:31:38.868Z,465
2022-08-14T08:33:51.518Z,384
2022-08-14T08:34:55.300Z,500
2022-08-14T08:37:09.864Z,499
2022-08-14T08:40:06.836Z,488
2022-08-14T08:41:13.068Z,867
2022-08-14T08:42:16.687Z,748
2022-08-14T08:44:35.992Z,957
2022-08-14T08:46:48.905Z,960
2022-08-14T08:47:52.518Z,956
2022-08-14T08:51:37.654Z,944
2022-08-14T08:52:53.804Z,929
2022-08-14T08:55:12.804Z,940
2022-08-14T08:56:45.021Z,867
2022-08-14T08:57:49.536Z,946
2022-08-14T09:00:18.816Z,956
2022-08-14T09:01:32.778Z,953
2022-08-14T09:02:35.937Z,948
2022-08-14T09:03:49.214Z,953
2022-08-14T09:04:55.388Z,936
2022-08-14T09:07:12.522Z,938
2022-08-14T09:08:37.596Z,977
2022-08-14T09:10:02.073Z,982
2022-08-14T09:11:22.813Z,986
2022-08-14T09:12:34.472Z,961
2022-08-14T09:13:37.098Z,1000
2022-08-14T09:15:45.816Z,1004
2022-08-14T09:17:57.568Z,955
2022-08-14T09:20:12.971Z,962
2022-08-14T09:21:34.448Z,970
2022-08-14T09:22:51.889Z,1042
2022-08-14T09:24:47.242Z,1041
2022-08-14T09:26:28.746Z,1041
2022-08-14T09:27:36.399Z,776
2022-08-14T09:28:39.591Z,982
2022-08-14T09:29:56.814Z,1103
2022-08-14T09:31:19.237Z,1074
2022-08-14T09:33:13.254Z,1116
2022-08-14T09:34:29.712Z,1107
2022-08-14T09:35:35.989Z,1039
2022-08-14T09:36:44.483Z,902
2022-08-14T09:37:56.520Z,1068
2022-08-14T09:39:02.006Z,1097
2022-08-14T09:41:12.899Z,1092
2022-08-14T09:42:35.862Z,1069
2022-08-14T09:43:53.135Z,1074
2022-08-14T09:45:09.488Z,1071
2022-08-14T09:46:27.480Z,1079
2022-08-14T09:47:30.628Z,1063
2022-08-14T09:49:42.028Z,1064
2022-08-14T09:50:44.317Z,833
2022-08-14T09:52:02.505Z,925
2022-08-14T09:54:28.972Z,353
2022-08-14T09:55:44.217Z,1042
2022-08-14T09:57:01.622Z,1088
2022-08-14T09:58:05.409Z,1103
2022-08-14T10:00:33.654Z,1096
2022-08-14T10:01:52.570Z,1096
2022-08-14T10:02:57.955Z,1053
2022-08-14T10:04:04.768Z,1016
2022-08-14T10:05:43.341Z,1058
2022-08-14T10:06:47.184Z,1027
2022-08-14T10:08:15.194Z,1057
2022-08-14T10:09:39.913Z,1076
2022-08-14T10:11:04.036Z,1098
2022-08-14T10:12:29.513Z,1114
2022-08-14T10:13:58.110Z,1117
2022-08-14T10:15:05.064Z,1164
2022-08-14T10:16:35.743Z,1158
2022-08-14T10:17:46.519Z,1152
2022-08-14T10:18:51.613Z,1138
2022-08-14T10:20:01.428Z,1126
2022-08-14T10:21:16.700Z,1126
2022-08-14T10:23:19.165Z,1098
2022-08-14T10:24:38.459Z,1091
2022-08-14T10:25:44.623Z,1090
2022-08-14T10:26:50.100Z,1077
2022-08-14T10:27:59.165Z,1121
2022-08-14T10:29:28.893Z,1131
2022-08-14T10:31:50.852Z,1137
2022-08-14T10:33:02.234Z,1151
2022-08-14T10:34:15.637Z,1151
2022-08-14T10:37:02.920Z,1128
2022-08-14T10:38:10.214Z,1097
2022-08-14T10:39:14.230Z,1070
2022-08-14T10:41:06.704Z,1074
2022-08-14T10:42:25.148Z,1096
2022-08-14T10:44:34.188Z,1080
2022-08-14T10:48:24.240Z,950
2022-08-14T10:49:56.959Z,1006
2022-08-14T10:51:00.775Z,1013
2022-08-14T10:52:08.778Z,1055
2022-08-14T10:53:13.203Z,1054
2022-08-14T10:54:47.942Z,1076
2022-08-14T10:56:06.333Z,1079
2022-08-14T10:57:43.402Z,1121
2022-08-14T10:58:45.635Z,1145
2022-08-14T11:00:57.835Z,1183
2022-08-14T11:02:01.267Z,1173
2022-08-14T11:03:06.602Z,1152
2022-08-14T11:04:10.442Z,1192
2022-08-14T11:06:19.007Z,1171
2022-08-14T11:08:32.325Z,1079
2022-08-14T11:10:43.808Z,1119
2022-08-14T11:12:33.057Z,1145
2022-08-14T11:13:45.777Z,1139
2022-08-14T11:15:03.131Z,1135
2022-08-14T11:16:09.688Z,1102
2022-08-14T11:17:12.630Z,1069
2022-08-14T11:18:45.231Z,1099
2022-08-14T11:21:04.158Z,1112
2022-08-14T11:22:59.872Z,1105
2022-08-14T11:24:57.036Z,978
2022-08-14T11:27:06.575Z,841
2022-08-14T11:28:50.235Z,319
2022-08-14T11:30:56.000Z,301
2022-08-14T11:31:59.657Z,326
2022-08-14T11:33:03.947Z,475
2022-08-14T11:34:36.211Z,519
2022-08-14T11:35:49.837Z,352
2022-08-14T11:37:49.308Z,343
2022-08-14T11:38:55.915Z,622
2022-08-14T11:40:00.584Z,801
2022-08-14T11:41:04.275Z,708
2022-08-14T11:43:00.661Z,745
2022-08-14T11:44:48.642Z,777
2022-08-14T11:46:38.745Z,721
2022-08-14T11:49:07.879Z,896
2022-08-14T11:50:39.052Z,921
2022-08-14T11:52:00.461Z,907
2022-08-14T11:53:09.197Z,574
2022-08-14T11:54:36.141Z,335
2022-08-14T11:55:42.011Z,329
2022-08-14T11:56:45.106Z,376
2022-08-14T11:58:07.052Z,531
2022-08-14T11:59:13.924Z,842
2022-08-14T12:00:47.870Z,786
2022-08-14T12:01:51.323Z,903
2022-08-14T12:03:07.096Z,877
2022-08-14T12:04:38.006Z,806
2022-08-14T12:06:53.456Z,777
2022-08-14T12:09:03.687Z,827
2022-08-14T12:10:47.801Z,860
2022-08-14T12:11:58.753Z,695
2022-08-14T12:13:02.555Z,714
2022-08-14T12:14:42.710Z,750
2022-08-14T12:15:52.437Z,620
2022-08-14T12:17:02.837Z,532
2022-08-14T12:18:21.252Z,468
2022-08-14T12:19:23.785Z,384
2022-08-14T12:20:33.484Z,345
2022-08-14T12:21:38.251Z,270
2022-08-14T12:22:55.482Z,446
2022-08-14T12:24:04.247Z,517
2022-08-14T12:25:14.057Z,600
2022-08-14T12:26:42.579Z,622
2022-08-14T12:28:05.291Z,624
2022-08-14T12:30:22.099Z,622
2022-08-14T12:31:54.129Z,658
2022-08-14T12:32:58.110Z,705
2022-08-14T12:34:01.883Z,698
2022-08-14T12:35:13.611Z,635
2022-08-14T12:36:22.521Z,676
2022-08-14T12:37:27.900Z,694
2022-08-14T12:38:32.002Z,675
2022-08-14T12:39:43.699Z,732
2022-08-14T12:40:49.835Z,793
2022-08-14T12:43:04.428Z,806
2022-08-14T12:44:09.916Z,799
2022-08-14T12:45:18.758Z,797
2022-08-14T12:46:30.728Z,801
2022-08-14T12:48:37.199Z,855
2022-08-14T12:49:43.332Z,838
2022-08-14T12:50:51.893Z,809
2022-08-14T12:51:55.141Z,774
2022-08-14T12:53:19.184Z,749
2022-08-14T12:54:33.636Z,691
2022-08-14T12:56:46.285Z,695
2022-08-14T12:58:59.530Z,732
2022-08-14T13:00:25.316Z,693
2022-08-14T13:01:28.688Z,397
2022-08-14T13:02:34.003Z,311
2022-08-14T13:04:47.731Z,663
2022-08-14T13:06:55.621Z,605
2022-08-14T13:09:16.093Z,495
2022-08-14T13:10:56.950Z,471
2022-08-14T13:13:17.052Z,452
2022-08-14T13:14:32.950Z,435
2022-08-14T13:15:35.801Z,470
2022-08-14T13:17:43.420Z,477
2022-08-14T13:18:59.558Z,405
2022-08-14T13:20:26.983Z,449
2022-08-14T13:22:44.582Z,444
2022-08-14T13:23:51.614Z,496
2022-08-14T13:24:55.461Z,523
2022-08-14T13:25:58.292Z,433
2022-08-14T13:27:01.311Z,500
2022-08-14T13:28:11.400Z,448
2022-08-14T13:29:48.781Z,398
2022-08-14T13:30:59.501Z,440
2022-08-14T13:33:05.057Z,402
2022-08-14T13:35:23.226Z,429
2022-08-14T13:37:05.611Z,363
2022-08-14T13:38:20.214Z,283
2022-08-14T13:40:28.026Z,314
2022-08-14T13:41:38.162Z,297
2022-08-14T13:42:39.956Z,278
2022-08-14T13:44:02.132Z,286
2022-08-14T13:46:12.263Z,285
2022-08-14T13:47:17.000Z,250
2022-08-14T13:48:38.270Z,260
2022-08-14T13:50:00.134Z,259
2022-08-14T13:51:04.272Z,321
2022-08-14T13:52:56.252Z,252
2022-08-14T13:54:12.730Z,241
2022-08-14T13:56:38.769Z,322
2022-08-14T13:58:34.187Z,253
2022-08-14T13:59:44.672Z,352
2022-08-14T14:00:57.388Z,390
2022-08-14T14:03:03.351Z,572
2022-08-14T14:04:20.699Z,620
2022-08-14T14:05:24.113Z,575
2022-08-14T14:06:26.135Z,599
2022-08-14T14:08:49.163Z,566
2022-08-14T14:10:57.606Z,568
2022-08-14T14:13:07.301Z,501
2022-08-14T14:14:56.272Z,448
2022-08-14T14:16:00.421Z,408
2022-08-14T14:17:07.109Z,414
2022-08-14T14:18:46.651Z,393
2022-08-14T14:19:55.038Z,357
2022-08-14T14:20:57.388Z,402
2022-08-14T14:21:59.888Z,396
2022-08-14T14:23:18.255Z,367
2022-08-14T14:24:22.434Z,286
2022-08-14T14:25:24.510Z,298
2022-08-14T14:26:27.561Z,279
2022-08-14T14:27:43.904Z,259
2022-08-14T14:29:59.809Z,317
2022-08-14T14:31:08.956Z,395
2022-08-14T14:32:32.391Z,428
2022-08-14T14:33:58.502Z,357
2022-08-14T14:35:00.882Z,375
2022-08-14T14:36:07.402Z,367
2022-08-14T14:37:13.457Z,289
2022-08-14T14:38:30.756Z,233
2022-08-14T14:41:02.825Z,201
2022-08-14T14:42:18.257Z,180
2022-08-14T14:43:45.331Z,179
2022-08-14T14:44:58.023Z,174
2022-08-14T14:46:00.661Z,172
2022-08-14T14:47:11.591Z,168
2022-08-14T14:48:19.970Z,168
2022-08-14T14:49:56.112Z,177
2022-08-14T14:51:00.149Z,173
2022-08-14T14:53:15.010Z,164
2022-08-14T14:54:39.767Z,173
2022-08-14T14:56:55.396Z,167
2022-08-14T14:57:57.408Z,166
2022-08-14T14:59:01.159Z,161
2022-08-14T15:01:13.792Z,173
2022-08-14T15:02:19.122Z,173
2022-08-14T15:03:21.444Z,163
2022-08-14T15:05:35.526Z,169
2022-08-14T15:06:49.721Z,169
2022-08-14T15:07:55.287Z,167
2022-08-14T15:09:04.946Z,172
2022-08-14T15:10:46.998Z,167
2022-08-14T15:11:58.782Z,160
2022-08-14T15:13:09.826Z,158
2022-08-14T15:15:12.732Z,151
2022-08-14T15:16:18.615Z,147
2022-08-14T15:18:53.044Z,155
2022-08-14T15:21:02.524Z,163
2022-08-14T15:22:11.354Z,164
2022-08-14T15:23:16.736Z,167
2022-08-14T15:24:28.273Z,167
2022-08-14T15:25:30.850Z,168
2022-08-14T15:26:35.314Z,170
2022-08-14T15:27:55.859Z,168
2022-08-14T15:29:08.210Z,166
2022-08-14T15:30:33.024Z,165
2022-08-14T15:31:40.619Z,164
2022-08-14T15:34:54.503Z,163
2022-08-14T15:36:04.381Z,164
2022-08-14T15:37:42.662Z,164
2022-08-14T15:38:49.573Z,163
2022-08-14T15:39:55.247Z,163
2022-08-14T15:40:57.547Z,164
2022-08-14T15:42:00.996Z,163
2022-08-14T15:43:09.402Z,163
2022-08-14T15:45:02.567Z,164
2022-08-14T15:46:41.698Z,163
2022-08-14T15:47:53.451Z,163
2022-08-14T15:48:57.174Z,162
2022-08-14T15:51:06.537Z,160
2022-08-14T15:52:46.242Z,159
2022-08-14T15:53:53.410Z,158
2022-08-14T15:54:56.763Z,157
2022-08-14T15:57:04.848Z,157
2022-08-14T15:58:22.165Z,157
2022-08-14T15:59:29.497Z,154
2022-08-14T16:00:53.717Z,153
2022-08-14T16:01:57.311Z,152
2022-08-14T16:03:01.967Z,151
2022-08-14T16:04:17.591Z,150
2022-08-14T16:05:41.254Z,150
2022-08-14T16:06:56.628Z,147
2022-08-14T16:07:59.018Z,147
2022-08-14T16:09:15.383Z,144
2022-08-14T16:10:31.950Z,143
2022-08-14T16:11:54.905Z,141
2022-08-14T16:12:57.845Z,137
2022-08-14T16:14:07.773Z,135
2022-08-14T16:15:13.454Z,133
2022-08-14T16:17:08.596Z,132
2022-08-14T16:18:20.047Z,127
2022-08-14T16:19:25.872Z,124
2022-08-14T16:20:47.428Z,123
2022-08-14T16:23:01.531Z,120
2022-08-14T16:24:03.924Z,116
2022-08-14T16:25:06.539Z,115
2022-08-14T16:26:29.895Z,112
2022-08-14T16:27:45.798Z,110
2022-08-14T16:28:54.538Z,107
2022-08-14T16:29:57.195Z,106
2022-08-14T16:30:59.267Z,103
2022-08-14T16:33:02.072Z,102
2022-08-14T16:34:58.036Z,98
2022-08-14T16:36:31.490Z,96
2022-08-14T16:37:36.500Z,93
2022-08-14T16:38:50.429Z,94
2022-08-14T16:39:58.590Z,91
2022-08-14T16:41:04.964Z,90
2022-08-14T16:43:17.105Z,88
2022-08-14T16:44:34.827Z,85
2022-08-14T16:45:55.266Z,82
2022-08-14T16:47:00.703Z,80
2022-08-14T16:49:05.185Z,76
2022-08-14T16:50:15.411Z,73
2022-08-14T16:51:54.133Z,71
2022-08-14T16:53:10.785Z,69
2022-08-14T16:54:46.715Z,67
2022-08-14T16:55:58.537Z,65
2022-08-14T16:57:09.042Z,62
2022-08-14T16:58:20.208Z,61
2022-08-14T16:59:59.952Z,59
2022-08-14T17:01:31.917Z,57
2022-08-14T17:02:34.502Z,57
2022-08-14T17:03:43.304Z,56
2022-08-14T17:04:55.984Z,54
2022-08-14T17:07:06.229Z,52
2022-08-14T17:08:47.543Z,51
2022-08-14T17:09:50.713Z,50
2022-08-14T17:10:58.856Z,49
2022-08-14T17:12:08.829Z,49
2022-08-14T17:14:02.965Z,47
2022-08-14T17:15:19.119Z,47
2022-08-14T17:16:27.468Z,46
2022-08-14T17:17:34.743Z,45
2022-08-14T17:18:37.769Z,45
2022-08-14T17:19:56.013Z,44
2022-08-14T17:21:32.505Z,44
2022-08-14T17:22:35.820Z,43
2022-08-14T17:23:38.379Z,42
2022-08-14T17:45:03.860Z,30
2022-08-14T17:46:09.881Z,30
2022-08-14T17:47:20.909Z,29
2022-08-14T17:49:20.305Z,29
2022-08-14T17:51:05.644Z,28
2022-08-14T17:52:50.271Z,27
2022-08-14T17:54:09.335Z,26
2022-08-14T17:56:05.469Z,25
2022-08-14T17:57:17.390Z,24
2022-08-14T17:58:26.982Z,23
2022-08-14T17:59:37.871Z,23
2022-08-14T18:00:52.535Z,22
2022-08-14T18:02:58.886Z,21
2022-08-14T18:04:33.081Z,20
2022-08-14T18:08:40.672Z,19
2022-08-14T18:10:57.151Z,17
2022-08-14T18:13:13.192Z,15
2022-08-14T18:14:54.292Z,15
2022-08-14T18:15:57.077Z,14
2022-08-14T18:18:09.263Z,13
2022-08-14T18:19:12.240Z,12
2022-08-14T18:21:58.723Z,11
2022-08-14T18:23:06.330Z,10
2022-08-14T18:24:33.308Z,9
2022-08-14T18:26:42.817Z,8
2022-08-14T18:27:51.744Z,8
2022-08-14T18:28:59.858Z,7
2022-08-14T18:31:00.451Z,7
2022-08-14T18:32:08.498Z,6
2022-08-14T18:33:16.097Z,6
2022-08-14T18:34:34.261Z,5
2022-08-14T18:37:02.047Z,5
2022-08-14T18:39:01.982Z,4
2022-08-14T18:40:14.394Z,3
2022-08-14T18:41:20.619Z,3
2022-08-14T18:42:31.656Z,3
2022-08-14T18:44:39.802Z,2
2022-08-14T18:45:52.523Z,2
2022-08-14T18:47:08.619Z,2
2022-08-14T18:49:34.586Z,1
2022-08-14T18:50:38.026Z,1
2022-08-14T18:51:48.979Z,1
2022-08-14T18:52:53.020Z,1
2022-08-14T18:55:01.173Z,1
2022-08-14T18:56:22.217Z,0
2022-08-14T18:57:41.557Z,0
2022-08-14T18:58:59.610Z,0
2022-08-14T19:00:02.399Z,0
2022-08-14T19:01:09.592Z,0
2022-08-14T19:02:32.480Z,0
2022-08-14T19:03:37.819Z,0
2022-08-14T19:04:43.649Z,0
2022-08-14T19:05:50.065Z,0
2022-08-14T19:06:58.613Z,0
2022-08-14T19:08:05.214Z,0
2022-08-14T19:09:07.842Z,0
2022-08-14T19:10:18.559Z,0
2022-08-14T19:11:35.185Z,0
2022-08-14T19:12:51.394Z,0
2022-08-14T19:13:59.452Z,0
2022-08-14T19:15:05.984Z,0
2022-08-14T19:16:14.062Z,0
2022-08-14T19:17:17.433Z,0
2022-08-14T19:18:29.838Z,0
2022-08-14T19:19:33.428Z,0
2022-08-14T19:20:39.611Z,0
2022-08-14T19:22:49.379Z,0
2022-08-14T19:24:30.429Z,0
2022-08-14T19:25:35.853Z,0
2022-08-14T19:26:58.782Z,0
2022-08-14T19:29:12.752Z,0
2022-08-14T19:30:22.434Z,0
2022-08-14T19:31:59.715Z,0
2022-08-14T19:33:15.612Z,0
2022-08-14T19:34:31.807Z,0
2022-08-14T19:36:01.812Z,0
2022-08-14T19:37:11.633Z,0
2022-08-14T19:38:35.319Z,0
2022-08-14T19:39:45.564Z,0
2022-08-14T19:40:52.793Z,0
2022-08-14T19:42:00.306Z,0
2022-08-14T19:44:13.035Z,0
2022-08-14T19:45:16.356Z,0
2022-08-14T19:47:12.364Z,0
2022-08-14T19:50:45.721Z,0
2022-08-14T19:51:49.932Z,0
2022-08-14T19:52:52.940Z,0
2022-08-14T19:55:01.059Z,0
2022-08-14T19:57:11.922Z,0
2022-08-14T19:59:19.090Z,0
2022-08-14T20:00:33.573Z,0
2022-08-14T20:02:06.145Z,0
2022-08-14T20:03:25.601Z,0
2022-08-14T20:05:07.500Z,0
2022-08-14T20:06:19.028Z,0
2022-08-14T20:07:22.846Z,0
2022-08-14T20:12:35.100Z,0
2022-08-14T20:14:10.453Z,0
2022-08-14T20:15:49.601Z,0
2022-08-14T20:17:08.327Z,0
2022-08-14T20:18:51.752Z,0
2022-08-14T20:21:05.369Z,0
2022-08-14T20:22:40.442Z,0
2022-08-14T20:23:43.426Z,0
2022-08-14T20:26:01.449Z,0
2022-08-14T20:27:05.653Z,0
2022-08-14T20:28:32.681Z,0
2022-08-14T20:29:42.518Z,0
2022-08-14T20:30:49.984Z,0
2022-08-14T20:31:55.945Z,0
2022-08-14T20:34:07.009Z,0
2022-08-14T20:35:11.247Z,0
2022-08-14T20:37:25.128Z,0
2022-08-14T20:38:37.318Z,0
2022-08-14T20:39:56.394Z,0
2022-08-14T20:41:00.149Z,0
2022-08-14T20:42:05.874Z,0
2022-08-14T20:43:16.216Z,0
2022-08-14T20:44:29.982Z,0
2022-08-14T20:45:35.676Z,0
2022-08-14T20:46:44.668Z,0
2022-08-14T20:47:55.698Z,0
2022-08-14T20:48:58.560Z,0
2022-08-14T20:50:29.779Z,0
2022-08-14T20:52:20.183Z,0
2022-08-14T20:53:28.009Z,0
2022-08-14T20:54:52.715Z,0
2022-08-14T20:56:32.995Z,0
2022-08-14T20:58:00.395Z,0
2022-08-14T20:59:06.866Z,0
2022-08-14T21:00:15.346Z,0
2022-08-14T21:01:20.076Z,0
2022-08-14T21:02:52.466Z,0
2022-08-14T21:03:59.261Z,0
2022-08-14T21:05:01.635Z,0
2022-08-14T21:06:24.961Z,0
2022-08-14T21:07:39.666Z,0